UAE449 HECA-OMDB
Flight info
| Callsign | UAE449 |
|---|---|
| Flight time | N/A |
| Altitude | 41000 |
| Route | MENLI N697 SISIK W976 TAKSU L550 KARIK B411 DEESA Y415 LOTOK P559 VUTEB |
| Aircraft | A359/H-SDE2E3GHIJ3J4J5LM1ORWXY/LB1D1 |
Departure
| Time | N/A |
|---|---|
| Airport | Cairo International Airport (HECA) |
Arrival
| Time | 2026-04-25 14:58 |
|---|---|
| Airport | Dubai International Airport (OMDB) |
| Time | Latitude | Longitude | Altitude | Speed | Heading |
|---|---|---|---|---|---|
| 2026-04-25 14:02 | 27.14542 | 48.70912 | 40938 ft | 576 kts | 108° |
| 2026-04-25 14:03 | 27.12220 | 48.79532 | 40940 ft | 576 kts | 108° |
| 2026-04-25 14:03 | 27.10125 | 48.88179 | 40914 ft | 577 kts | 99° |
| 2026-04-25 14:04 | 27.09388 | 48.97113 | 40912 ft | 576 kts | 92° |
| 2026-04-25 14:04 | 27.08965 | 49.06122 | 40918 ft | 576 kts | 91° |
| 2026-04-25 14:05 | 27.08596 | 49.15117 | 40908 ft | 576 kts | 91° |
| 2026-04-25 14:05 | 27.08203 | 49.24044 | 40908 ft | 575 kts | 92° |
| 2026-04-25 14:06 | 27.07782 | 49.33021 | 40918 ft | 575 kts | 92° |
| 2026-04-25 14:06 | 27.07339 | 49.41937 | 40919 ft | 574 kts | 92° |
| 2026-04-25 14:07 | 27.06896 | 49.50891 | 40911 ft | 573 kts | 92° |
| 2026-04-25 14:07 | 27.06455 | 49.59831 | 40907 ft | 572 kts | 92° |
| 2026-04-25 14:08 | 27.06012 | 49.68703 | 40909 ft | 572 kts | 92° |
| 2026-04-25 14:08 | 27.05562 | 49.77628 | 40909 ft | 571 kts | 92° |
| 2026-04-25 14:09 | 27.05110 | 49.86470 | 40911 ft | 570 kts | 92° |
| 2026-04-25 14:09 | 27.04649 | 49.95391 | 40915 ft | 570 kts | 92° |
| 2026-04-25 14:10 | 27.04397 | 50.04237 | 40897 ft | 569 kts | 88° |
| 2026-04-25 14:10 | 27.04571 | 50.13129 | 40895 ft | 569 kts | 86° |
| 2026-04-25 14:11 | 27.04767 | 50.21960 | 40897 ft | 569 kts | 87° |
| 2026-04-25 14:11 | 27.04879 | 50.30850 | 40902 ft | 568 kts | 88° |
| 2026-04-25 14:12 | 27.03872 | 50.39624 | 40896 ft | 567 kts | 109° |
| 2026-04-25 14:12 | 27.01110 | 50.47838 | 40892 ft | 565 kts | 115° |
| 2026-04-25 14:13 | 26.98009 | 50.55940 | 40881 ft | 565 kts | 116° |
| 2026-04-25 14:13 | 26.94867 | 50.64038 | 40879 ft | 565 kts | 116° |
| 2026-04-25 14:14 | 26.91767 | 50.72094 | 40881 ft | 565 kts | 115° |
| 2026-04-25 14:14 | 26.88668 | 50.80200 | 40876 ft | 565 kts | 115° |
| 2026-04-25 14:15 | 26.85594 | 50.88252 | 40860 ft | 565 kts | 115° |
| 2026-04-25 14:15 | 26.82490 | 50.96352 | 40857 ft | 564 kts | 115° |
| 2026-04-25 14:16 | 26.79420 | 51.04391 | 40857 ft | 564 kts | 115° |
| 2026-04-25 14:16 | 26.76385 | 51.12484 | 40854 ft | 564 kts | 113° |
| 2026-04-25 14:17 | 26.73720 | 51.20777 | 40823 ft | 565 kts | 110° |
| 2026-04-25 14:17 | 26.71181 | 51.29047 | 40830 ft | 565 kts | 110° |
| 2026-04-25 14:18 | 26.68573 | 51.37331 | 40830 ft | 564 kts | 111° |
| 2026-04-25 14:18 | 26.66366 | 51.44201 | 40823 ft | 564 kts | 111° |
| 2026-04-25 14:19 | 26.63276 | 51.53796 | 40823 ft | 564 kts | 111° |
| 2026-04-25 14:19 | 26.61062 | 51.60664 | 40808 ft | 563 kts | 111° |
| 2026-04-25 14:20 | 26.57969 | 51.70247 | 40805 ft | 563 kts | 111° |
| 2026-04-25 14:20 | 26.55756 | 51.77096 | 40800 ft | 563 kts | 111° |
| 2026-04-25 14:21 | 26.53085 | 51.85345 | 40802 ft | 563 kts | 111° |
| 2026-04-25 14:21 | 26.50406 | 51.93552 | 40802 ft | 562 kts | 111° |
| 2026-04-25 14:22 | 26.47686 | 52.01695 | 40778 ft | 562 kts | 111° |
| 2026-04-25 14:22 | 26.44942 | 52.09884 | 40781 ft | 561 kts | 111° |
| 2026-04-25 14:23 | 26.42225 | 52.18014 | 40779 ft | 561 kts | 111° |
| 2026-04-25 14:23 | 26.39489 | 52.26182 | 40772 ft | 561 kts | 111° |
| 2026-04-25 14:24 | 26.36751 | 52.34335 | 40758 ft | 560 kts | 111° |
| 2026-04-25 14:24 | 26.33982 | 52.42415 | 40762 ft | 559 kts | 114° |
| 2026-04-25 14:25 | 26.30908 | 52.50392 | 40531 ft | 558 kts | 115° |
| 2026-04-25 14:25 | 26.29339 | 52.54358 | 40297 ft | 559 kts | 115° |
| 2026-04-25 14:25 | 26.27796 | 52.58269 | 39743 ft | 558 kts | 115° |
| 2026-04-25 14:25 | 26.26763 | 52.60907 | 39257 ft | 560 kts | 115° |
| 2026-04-25 14:26 | 26.24683 | 52.66256 | 38289 ft | 562 kts | 115° |
| 2026-04-25 14:26 | 26.23140 | 52.70259 | 37547 ft | 561 kts | 115° |
| 2026-04-25 14:26 | 26.21614 | 52.74252 | 36872 ft | 559 kts | 115° |
| 2026-04-25 14:26 | 26.20093 | 52.78236 | 36200 ft | 556 kts | 116° |
| 2026-04-25 14:27 | 26.18604 | 52.82135 | 35569 ft | 552 kts | 116° |
| 2026-04-25 14:27 | 26.17104 | 52.86058 | 34932 ft | 548 kts | 117° |
| 2026-04-25 14:27 | 26.15611 | 52.89953 | 34297 ft | 543 kts | 117° |
| 2026-04-25 14:27 | 26.14133 | 52.93805 | 33625 ft | 538 kts | 117° |
| 2026-04-25 14:28 | 26.12657 | 52.97638 | 32767 ft | 537 kts | 117° |
| 2026-04-25 14:28 | 26.11196 | 53.01425 | 31848 ft | 538 kts | 117° |
| 2026-04-25 14:28 | 26.09731 | 53.05228 | 31020 ft | 528 kts | 117° |
| 2026-04-25 14:28 | 26.08324 | 53.08986 | 30003 ft | 522 kts | 116° |
| 2026-04-25 14:29 | 26.06963 | 53.12702 | 28975 ft | 514 kts | 116° |
| 2026-04-25 14:29 | 26.05616 | 53.16405 | 28639 ft | 516 kts | 116° |
| 2026-04-25 14:29 | 26.04291 | 53.20040 | 28378 ft | 513 kts | 116° |
| 2026-04-25 14:29 | 26.02944 | 53.23724 | 28149 ft | 510 kts | 116° |
| 2026-04-25 14:30 | 26.01602 | 53.27378 | 27882 ft | 507 kts | 116° |
| 2026-04-25 14:30 | 25.98948 | 53.34575 | 27389 ft | 505 kts | 116° |
| 2026-04-25 14:30 | 25.97614 | 53.38180 | 27179 ft | 502 kts | 116° |
| 2026-04-25 14:31 | 25.96288 | 53.41761 | 26853 ft | 499 kts | 116° |
| 2026-04-25 14:31 | 25.94966 | 53.45331 | 26489 ft | 496 kts | 116° |
| 2026-04-25 14:31 | 25.93670 | 53.48826 | 26121 ft | 493 kts | 115° |
| 2026-04-25 14:31 | 25.92379 | 53.52351 | 25756 ft | 490 kts | 115° |
| 2026-04-25 14:32 | 25.91148 | 53.55873 | 25384 ft | 488 kts | 114° |
| 2026-04-25 14:32 | 25.89948 | 53.59396 | 25018 ft | 485 kts | 113° |
| 2026-04-25 14:32 | 25.88763 | 53.62895 | 24654 ft | 482 kts | 113° |
| 2026-04-25 14:32 | 25.87776 | 53.65804 | 24341 ft | 479 kts | 113° |
| 2026-04-25 14:33 | 25.86611 | 53.69219 | 23997 ft | 476 kts | 113° |
| 2026-04-25 14:33 | 25.85435 | 53.72648 | 23638 ft | 473 kts | 113° |
| 2026-04-25 14:33 | 25.84259 | 53.76062 | 23252 ft | 470 kts | 113° |
| 2026-04-25 14:33 | 25.83087 | 53.79443 | 22875 ft | 466 kts | 114° |
| 2026-04-25 14:34 | 25.81922 | 53.82793 | 22528 ft | 464 kts | 114° |
| 2026-04-25 14:34 | 25.80774 | 53.86086 | 22180 ft | 461 kts | 114° |
| 2026-04-25 14:34 | 25.79622 | 53.89392 | 21835 ft | 458 kts | 114° |
| 2026-04-25 14:34 | 25.78474 | 53.92685 | 21485 ft | 455 kts | 114° |
| 2026-04-25 14:35 | 25.77335 | 53.95951 | 21136 ft | 451 kts | 114° |
| 2026-04-25 14:35 | 25.76327 | 53.99252 | 20508 ft | 450 kts | 106° |
| 2026-04-25 14:35 | 25.75644 | 54.02617 | 20032 ft | 442 kts | 104° |
| 2026-04-25 14:35 | 25.75049 | 54.05901 | 19487 ft | 437 kts | 103° |
| 2026-04-25 14:36 | 25.74473 | 54.09195 | 18936 ft | 431 kts | 103° |
| 2026-04-25 14:36 | 25.73913 | 54.12452 | 18394 ft | 426 kts | 103° |
| 2026-04-25 14:36 | 25.73365 | 54.15666 | 17796 ft | 421 kts | 103° |
| 2026-04-25 14:36 | 25.72831 | 54.18803 | 17135 ft | 417 kts | 103° |
| 2026-04-25 14:37 | 25.72295 | 54.21959 | 16477 ft | 413 kts | 103° |
| 2026-04-25 14:37 | 25.71766 | 54.25081 | 15831 ft | 409 kts | 103° |
| 2026-04-25 14:37 | 25.71241 | 54.28168 | 15222 ft | 405 kts | 102° |
| 2026-04-25 14:37 | 25.70722 | 54.31227 | 14617 ft | 401 kts | 102° |
| 2026-04-25 14:38 | 25.70207 | 54.34257 | 13994 ft | 397 kts | 102° |
| 2026-04-25 14:38 | 25.69703 | 54.37215 | 13356 ft | 394 kts | 102° |
| 2026-04-25 14:38 | 25.69195 | 54.40198 | 12651 ft | 391 kts | 102° |
| 2026-04-25 14:38 | 25.68691 | 54.43153 | 11968 ft | 388 kts | 102° |
| 2026-04-25 14:39 | 25.68191 | 54.46082 | 11296 ft | 385 kts | 101° |
| 2026-04-25 14:39 | 25.67694 | 54.48987 | 10647 ft | 382 kts | 101° |
| 2026-04-25 14:39 | 25.67198 | 54.51882 | 10205 ft | 380 kts | 101° |
| 2026-04-25 14:39 | 25.66703 | 54.54768 | 10041 ft | 380 kts | 101° |
| 2026-04-25 14:40 | 25.66216 | 54.57609 | 10010 ft | 380 kts | 101° |
| 2026-04-25 14:40 | 25.65725 | 54.60468 | 10005 ft | 368 kts | 101° |
| 2026-04-25 14:40 | 25.65260 | 54.63171 | 10005 ft | 346 kts | 101° |
| 2026-04-25 14:40 | 25.64823 | 54.65715 | 10003 ft | 325 kts | 101° |
| 2026-04-25 14:41 | 25.64410 | 54.68109 | 10002 ft | 307 kts | 101° |
| 2026-04-25 14:41 | 25.64020 | 54.70369 | 10002 ft | 291 kts | 101° |
| 2026-04-25 14:41 | 25.63644 | 54.72549 | 10008 ft | 287 kts | 101° |
| 2026-04-25 14:41 | 25.63267 | 54.74722 | 10009 ft | 287 kts | 101° |
| 2026-04-25 14:42 | 25.62897 | 54.76864 | 10008 ft | 287 kts | 101° |
| 2026-04-25 14:42 | 25.62642 | 54.78336 | 10009 ft | 287 kts | 101° |
| 2026-04-25 14:42 | 25.62142 | 54.81219 | 10010 ft | 287 kts | 101° |
| 2026-04-25 14:42 | 25.61765 | 54.83391 | 10008 ft | 286 kts | 101° |
| 2026-04-25 14:43 | 25.61370 | 54.85531 | 9768 ft | 287 kts | 104° |
| 2026-04-25 14:43 | 25.60752 | 54.87629 | 9393 ft | 284 kts | 112° |
| 2026-04-25 14:43 | 25.59991 | 54.89645 | 9049 ft | 282 kts | 114° |
| 2026-04-25 14:43 | 25.59209 | 54.91640 | 8668 ft | 280 kts | 114° |
| 2026-04-25 14:44 | 25.58432 | 54.93619 | 8299 ft | 279 kts | 114° |
| 2026-04-25 14:44 | 25.57671 | 54.95564 | 8053 ft | 277 kts | 114° |
| 2026-04-25 14:44 | 25.56901 | 54.97533 | 8001 ft | 279 kts | 114° |
| 2026-04-25 14:44 | 25.56130 | 54.99507 | 8005 ft | 278 kts | 114° |
| 2026-04-25 14:45 | 25.55360 | 55.01480 | 8008 ft | 278 kts | 114° |
| 2026-04-25 14:45 | 25.54566 | 55.03404 | 8005 ft | 277 kts | 118° |
| 2026-04-25 14:45 | 25.53641 | 55.05285 | 8007 ft | 277 kts | 120° |
| 2026-04-25 14:45 | 25.52682 | 55.07136 | 8005 ft | 277 kts | 121° |
| 2026-04-25 14:46 | 25.51720 | 55.08985 | 7998 ft | 276 kts | 121° |
| 2026-04-25 14:46 | 25.50771 | 55.10810 | 8003 ft | 277 kts | 121° |
| 2026-04-25 14:46 | 25.49810 | 55.12656 | 8004 ft | 276 kts | 121° |
| 2026-04-25 14:46 | 25.48850 | 55.14505 | 7999 ft | 277 kts | 121° |
| 2026-04-25 14:47 | 25.47889 | 55.16355 | 8005 ft | 277 kts | 121° |
| 2026-04-25 14:47 | 25.47248 | 55.17588 | 8001 ft | 277 kts | 121° |
| 2026-04-25 14:47 | 25.45889 | 55.19981 | 8001 ft | 276 kts | 128° |
| 2026-04-25 14:47 | 25.44663 | 55.21609 | 8001 ft | 274 kts | 133° |
| 2026-04-25 14:48 | 25.43385 | 55.23183 | 8007 ft | 274 kts | 133° |
| 2026-04-25 14:48 | 25.42102 | 55.24750 | 8001 ft | 275 kts | 133° |
| 2026-04-25 14:48 | 25.40835 | 55.26299 | 8003 ft | 274 kts | 133° |
| 2026-04-25 14:48 | 25.39556 | 55.27867 | 7988 ft | 274 kts | 133° |
| 2026-04-25 14:49 | 25.38269 | 55.29444 | 7647 ft | 275 kts | 133° |
| 2026-04-25 14:49 | 25.37003 | 55.30990 | 7458 ft | 266 kts | 134° |
| 2026-04-25 14:49 | 25.35689 | 55.32378 | 7301 ft | 255 kts | 142° |
| 2026-04-25 14:49 | 25.34261 | 55.33464 | 7071 ft | 249 kts | 152° |
| 2026-04-25 14:50 | 25.32748 | 55.34384 | 6789 ft | 246 kts | 154° |
| 2026-04-25 14:50 | 25.31233 | 55.35265 | 6492 ft | 246 kts | 154° |
| 2026-04-25 14:50 | 25.29718 | 55.36144 | 6176 ft | 245 kts | 154° |
| 2026-04-25 14:50 | 25.28232 | 55.37009 | 6009 ft | 244 kts | 154° |
| 2026-04-25 14:51 | 25.26721 | 55.37891 | 5995 ft | 245 kts | 154° |
| 2026-04-25 14:51 | 25.25215 | 55.38772 | 5992 ft | 244 kts | 154° |
| 2026-04-25 14:51 | 25.23709 | 55.39652 | 5859 ft | 246 kts | 154° |
| 2026-04-25 14:51 | 25.22191 | 55.40540 | 5531 ft | 246 kts | 154° |
| 2026-04-25 14:52 | 25.20703 | 55.41409 | 5249 ft | 244 kts | 154° |
| 2026-04-25 14:52 | 25.19207 | 55.42283 | 4965 ft | 242 kts | 154° |
| 2026-04-25 14:52 | 25.17724 | 55.43153 | 4665 ft | 241 kts | 153° |
| 2026-04-25 14:52 | 25.16745 | 55.43728 | 4454 ft | 240 kts | 153° |
| 2026-04-25 14:53 | 25.14760 | 55.44887 | 4010 ft | 241 kts | 153° |
| 2026-04-25 14:53 | 25.13285 | 55.45778 | 3663 ft | 242 kts | 149° |
| 2026-04-25 14:53 | 25.11922 | 55.46826 | 3367 ft | 240 kts | 140° |
| 2026-04-25 14:53 | 25.10927 | 55.48272 | 3060 ft | 237 kts | 109° |
| 2026-04-25 14:54 | 25.10742 | 55.50033 | 2714 ft | 230 kts | 77° |
| 2026-04-25 14:54 | 25.11389 | 55.51603 | 2384 ft | 224 kts | 49° |
| 2026-04-25 14:54 | 25.12453 | 55.52831 | 2088 ft | 219 kts | 32° |
| 2026-04-25 14:54 | 25.13843 | 55.53328 | 2010 ft | 212 kts | 357° |
| 2026-04-25 14:55 | 25.15263 | 55.52961 | 1999 ft | 209 kts | 336° |
| 2026-04-25 14:55 | 25.16477 | 55.52076 | 1992 ft | 210 kts | 319° |
| 2026-04-25 14:55 | 25.17378 | 55.50812 | 2002 ft | 210 kts | 299° |
| 2026-04-25 14:55 | 25.18053 | 55.49395 | 1988 ft | 211 kts | 301° |
| 2026-04-25 14:56 | 25.18839 | 55.48022 | 1778 ft | 210 kts | 305° |
| 2026-04-25 14:56 | 25.19590 | 55.46703 | 1540 ft | 192 kts | 302° |
| 2026-04-25 14:56 | 25.20237 | 55.45518 | 1267 ft | 167 kts | 302° |
| 2026-04-25 14:56 | 25.20810 | 55.44489 | 1066 ft | 154 kts | 302° |
| 2026-04-25 14:57 | 25.21355 | 55.43513 | 889 ft | 145 kts | 302° |
| 2026-04-25 14:57 | 25.21873 | 55.42580 | 714 ft | 138 kts | 302° |
| 2026-04-25 14:57 | 25.22362 | 55.41700 | 556 ft | 130 kts | 300° |
| 2026-04-25 14:57 | 25.22837 | 55.40848 | 383 ft | 131 kts | 301° |
| 2026-04-25 14:58 | 25.23312 | 55.39987 | 254 ft | 133 kts | 301° |
| 2026-04-25 14:58 | 25.23794 | 55.39121 | 51 ft | 130 kts | 302° |
| 2026-04-25 14:58 | 25.24250 | 55.38319 | 22 ft | 102 kts | 302° |
| 2026-04-25 14:58 | 25.24501 | 55.37881 | 21 ft | 47 kts | 301° |
| 2026-04-25 14:59 | 25.24666 | 55.37563 | 18 ft | 49 kts | 299° |
| 2026-04-25 14:59 | 25.24788 | 55.37244 | 16 ft | 26 kts | 280° |
| 2026-04-25 14:59 | 25.24789 | 55.37176 | 16 ft | 0 kts | 270° |